Time;durP1;ratioP1;P1;durP2;ratioP2;P2;SDS_P1;SDS_P2;PMS_P1;PMS_P2;Temp;Humidity;BMP_temperature;BMP_pressure;BME280_temperature;BME280_humidity;BME280_pressure;Samples;Min_cycle;Max_cycle;Signal;HPM_P1;HPM_P2
2024/01/20 00:00:43;;;;;;;22.17;11.63;;;;;;;-2.81;100.00;101678.84;7396265;19;20027;-68
2024/01/20 00:03:11;;;;;;;21.15;11.18;;;;;;;-2.84;99.88;101683.84;7395596;19;20027;-69
2024/01/20 00:05:40;;;;;;;24.67;11.20;;;;;;;-2.86;100.00;101680.31;7396500;19;20063;-69
2024/01/20 00:08:08;;;;;;;26.80;12.70;;;;;;;-2.88;100.00;101684.50;7396322;19;20018;-68
2024/01/20 00:10:37;;;;;;;26.75;11.45;;;;;;;-2.92;98.72;101685.13;7396154;19;20031;-69
2024/01/20 00:13:06;;;;;;;27.60;13.57;;;;;;;-2.90;100.00;101685.25;7396183;19;20027;-69
2024/01/20 00:15:36;;;;;;;27.13;12.02;;;;;;;-2.93;100.00;101688.53;7396834;19;20435;-69
2024/01/20 00:18:07;;;;;;;27.48;13.23;;;;;;;-2.96;100.00;101693.50;7395466;19;20019;-69
2024/01/20 00:20:36;;;;;;;20.77;10.45;;;;;;;-2.99;99.46;101698.50;7397069;19;20014;-68
2024/01/20 00:23:04;;;;;;;28.10;11.73;;;;;;;-3.02;100.00;101695.78;7395304;19;20537;-68
2024/01/20 00:25:33;;;;;;;23.98;11.93;;;;;;;-3.05;100.00;101704.22;7393849;19;20081;-69
2024/01/20 00:28:03;;;;;;;19.92;11.27;;;;;;;-3.06;100.00;101706.72;7395794;19;20039;-69
2024/01/20 00:30:32;;;;;;;20.75;10.20;;;;;;;-3.09;99.55;101704.88;7396091;19;20011;-69
2024/01/20 00:33:00;;;;;;;20.05;11.57;;;;;;;-3.11;100.00;101709.94;7395046;19;20015;-69
2024/01/20 00:35:31;;;;;;;26.65;10.70;;;;;;;-3.14;99.87;101711.47;7395362;19;20478;-69
2024/01/20 00:38:00;;;;;;;20.88;10.57;;;;;;;-3.15;100.00;101702.00;7395240;19;20051;-69
2024/01/20 00:40:28;;;;;;;24.88;12.05;;;;;;;-3.17;100.00;101712.19;7396082;19;20010;-69
2024/01/20 00:42:57;;;;;;;24.33;11.40;;;;;;;-3.19;100.00;101711.22;7393679;19;20469;-69
2024/01/20 00:45:25;;;;;;;20.83;10.13;;;;;;;-3.21;100.00;101707.72;7395697;19;20014;-69
2024/01/20 00:47:53;;;;;;;19.10;10.57;;;;;;;-3.25;99.68;101720.31;7396420;19;20038;-69
2024/01/20 00:50:22;;;;;;;26.65;12.45;;;;;;;-3.28;99.40;101715.91;7394019;19;20018;-69
2024/01/20 00:52:53;;;;;;;23.08;12.10;;;;;;;-3.28;100.00;101723.63;7395722;19;20070;-69
2024/01/20 00:55:22;;;;;;;22.05;11.18;;;;;;;-3.31;99.04;101724.34;7395783;19;20035;-69
2024/01/20 00:57:50;;;;;;;19.52;10.38;;;;;;;-3.32;99.28;101726.84;7400757;19;20498;-69
2024/01/20 01:00:19;;;;;;;23.38;11.32;;;;;;;-3.34;98.83;101731.00;7402529;19;20027;-69
2024/01/20 01:02:47;;;;;;;23.40;10.75;;;;;;;-3.35;99.01;101726.66;7402565;19;20014;-69
2024/01/20 01:05:16;;;;;;;19.98;10.88;;;;;;;-3.38;97.82;101734.22;7402764;19;20066;-68
2024/01/20 01:07:44;;;;;;;22.63;11.60;;;;;;;-3.36;98.86;101737.72;7402599;19;20018;-68
2024/01/20 01:10:16;;;;;;;27.08;10.48;;;;;;;-3.38;96.17;101749.63;7402534;19;20020;-68
2024/01/20 01:12:44;;;;;;;20.52;9.65;;;;;;;-3.36;98.88;101743.75;7402143;19;20018;-69
2024/01/20 01:15:13;;;;;;;22.13;11.65;;;;;;;-3.38;97.24;101744.47;7401964;19;20014;-68
2024/01/20 01:17:41;;;;;;;26.00;11.80;;;;;;;-3.36;98.35;101742.84;7401881;19;20024;-69
2024/01/20 01:20:11;;;;;;;22.65;11.82;;;;;;;-3.36;98.22;101748.00;7401960;19;20494;-68
2024/01/20 01:22:39;;;;;;;25.45;12.18;;;;;;;-3.36;100.00;101758.25;7401145;19;20069;-68
2024/01/20 01:25:09;;;;;;;23.00;11.75;;;;;;;-3.44;98.60;101753.63;7402111;19;20052;-69
2024/01/20 01:27:40;;;;;;;23.90;13.27;;;;;;;-3.40;100.00;101761.47;7401685;19;20011;-69
2024/01/20 01:30:10;;;;;;;23.30;12.20;;;;;;;-3.44;98.26;101761.34;7402286;19;20007;-69
2024/01/20 01:32:39;;;;;;;25.98;12.20;;;;;;;-3.45;98.08;101772.38;7401079;19;20014;-69
2024/01/20 01:35:08;;;;;;;21.83;11.43;;;;;;;-3.46;98.68;101774.88;7401100;19;20019;-69
2024/01/20 01:37:43;;;;;;;22.77;12.15;;;;;;;-3.48;99.38;101772.22;7398751;19;20014;-69
2024/01/20 01:40:13;;;;;;;26.65;12.07;;;;;;;-3.48;99.60;101784.19;7398707;19;20027;-69
2024/01/20 01:42:44;;;;;;;31.77;15.02;;;;;;;-3.50;97.79;101786.66;7400331;19;20042;-68
2024/01/20 01:45:12;;;;;;;22.25;12.95;;;;;;;-3.52;98.13;101783.13;7400927;19;20031;-69
2024/01/20 01:47:41;;;;;;;23.17;12.95;;;;;;;-3.53;99.31;101781.34;7401668;19;20018;-71
2024/01/20 01:50:11;;;;;;;24.08;14.40;;;;;;;-3.55;98.08;101780.41;7400860;19;20010;-70
2024/01/20 01:52:39;;;;;;;26.73;14.57;;;;;;;-3.54;99.63;101788.97;7398764;19;20027;-69
2024/01/20 01:55:09;;;;;;;28.02;13.52;;;;;;;-3.58;100.00;101787.94;7402087;19;20473;-69
2024/01/20 01:57:38;;;;;;;24.35;13.27;;;;;;;-3.61;99.09;101793.78;7401628;19;20473;-69
2024/01/20 02:00:10;;;;;;;25.15;14.27;;;;;;;-3.62;98.82;101793.72;7398598;19;20015;-69
2024/01/20 02:02:39;;;;;;;29.85;13.25;;;;;;;-3.66;97.21;101804.63;7400448;19;20010;-69
2024/01/20 02:05:08;;;;;;;23.40;13.88;;;;;;;-3.69;97.64;101797.66;7400976;19;20368;-69
2024/01/20 02:07:37;;;;;;;27.08;14.45;;;;;;;-3.70;97.59;101807.78;7399018;19;20031;-69
2024/01/20 02:10:08;;;;;;;27.65;14.60;;;;;;;-3.73;96.85;101811.06;7400246;19;20010;-69
2024/01/20 02:12:37;;;;;;;25.75;15.07;;;;;;;-3.73;98.47;101807.66;7400919;19;20007;-69
2024/01/20 02:15:09;;;;;;;23.65;13.73;;;;;;;-3.77;96.16;101807.50;7400308;19;20374;-69
2024/01/20 02:17:37;;;;;;;23.50;13.52;;;;;;;-3.77;98.12;101801.47;7400465;19;20372;-70
2024/01/20 02:20:07;;;;;;;24.35;13.82;;;;;;;-3.79;98.58;101803.06;7398177;19;20031;-69
2024/01/20 02:22:38;;;;;;;26.50;13.70;;;;;;;-3.80;97.85;101793.63;7400186;19;20031;-70
2024/01/20 02:25:07;;;;;;;30.02;15.00;;;;;;;-3.82;98.18;101793.50;7400951;19;20027;-70
2024/01/20 02:27:35;;;;;;;27.92;14.88;;;;;;;-3.81;98.96;101791.84;7400397;19;20014;-70
2024/01/20 02:30:04;;;;;;;25.90;14.40;;;;;;;-3.84;97.29;101789.09;7399483;19;20490;-68
2024/01/20 02:32:32;;;;;;;24.52;13.90;;;;;;;-3.83;97.76;101796.91;7398908;19;20481;-69
2024/01/20 02:35:01;;;;;;;23.95;15.27;;;;;;;-3.84;97.28;101801.94;7399490;19;20022;-69
2024/01/20 02:37:29;;;;;;;29.88;14.02;;;;;;;-3.86;98.37;101796.72;7399539;19;20006;-68
2024/01/20 02:40:00;;;;;;;28.60;15.05;;;;;;;-3.84;98.17;101800.25;7397523;19;20036;-68
2024/01/20 02:42:29;;;;;;;27.98;15.20;;;;;;;-3.83;99.11;101809.72;7399461;19;20014;-68
2024/01/20 02:44:57;;;;;;;28.65;13.70;;;;;;;-3.83;100.00;101809.72;7399159;19;20031;-68
2024/01/20 02:47:26;;;;;;;25.92;15.52;;;;;;;-3.83;100.00;101808.81;7399017;19;20027;-69
2024/01/20 02:49:54;;;;;;;27.60;14.70;;;;;;;-3.83;98.48;101806.25;7399105;19;20018;-68
2024/01/20 02:52:23;;;;;;;33.80;16.33;;;;;;;-3.84;98.98;101804.50;7396101;19;20010;-69
2024/01/20 02:54:51;;;;;;;30.40;15.73;;;;;;;-3.82;100.00;101803.78;7399255;19;20014;-68
2024/01/20 02:57:22;;;;;;;31.08;16.35;;;;;;;-3.81;100.00;101800.41;7398768;19;20015;-69
2024/01/20 02:59:51;;;;;;;30.88;15.10;;;;;;;-3.80;99.97;101798.75;7397828;19;20014;-68
2024/01/20 03:02:20;;;;;;;32.38;14.68;;;;;;;-3.79;100.00;101803.06;7398563;19;20035;-68
2024/01/20 03:04:48;;;;;;;24.60;12.48;;;;;;;-3.78;100.00;101799.69;7398056;19;20027;-68
2024/01/20 03:07:17;;;;;;;28.10;14.70;;;;;;;-3.78;99.51;101805.72;7398449;19;20018;-68
2024/01/20 03:09:46;;;;;;;30.23;13.13;;;;;;;-3.78;99.24;101807.38;7398326;19;20010;-68
2024/01/20 03:12:15;;;;;;;23.90;13.48;;;;;;;-3.77;99.14;101809.16;7398250;19;20015;-68
2024/01/20 03:14:46;;;;;;;23.67;13.88;;;;;;;-3.74;100.00;101808.44;7396080;19;20015;-68
2024/01/20 03:17:15;;;;;;;27.80;13.77;;;;;;;-3.73;100.00;101807.66;7398091;19;20356;-68
2024/01/20 03:19:43;;;;;;;31.77;15.10;;;;;;;-3.73;99.32;101808.50;7396058;19;20018;-68
2024/01/20 03:22:12;;;;;;;24.90;14.43;;;;;;;-3.73;98.58;101805.94;7397534;19;20424;-68
2024/01/20 03:24:40;;;;;;;26.10;14.50;;;;;;;-3.72;99.99;101814.53;7395476;19;20015;-68
2024/01/20 03:27:09;;;;;;;23.85;13.55;;;;;;;-3.71;99.10;101816.31;7397722;19;20019;-68
2024/01/20 03:29:37;;;;;;;25.95;14.07;;;;;;;-3.70;98.76;101815.50;7397257;19;20481;-68
2024/01/20 03:32:09;;;;;;;27.15;13.63;;;;;;;-3.67;99.25;101818.25;7397524;19;20018;-68
2024/01/20 03:34:37;;;;;;;25.50;14.88;;;;;;;-3.69;98.84;101824.97;7395695;19;20014;-68
2024/01/20 03:37:07;;;;;;;27.13;14.85;;;;;;;-3.66;99.00;101832.84;7397358;19;20014;-69
2024/01/20 03:39:35;;;;;;;24.23;13.77;;;;;;;-3.67;98.71;101836.19;7395368;19;20091;-68
2024/01/20 03:42:04;;;;;;;30.10;15.55;;;;;;;-3.65;100.00;101839.69;7396746;19;20482;-68
2024/01/20 03:44:32;;;;;;;24.70;13.77;;;;;;;-3.66;100.00;101843.97;7395664;19;20032;-68
2024/01/20 03:47:01;;;;;;;25.40;14.48;;;;;;;-3.67;100.00;101849.88;7394542;19;20486;-68
2024/01/20 03:49:32;;;;;;;29.73;14.43;;;;;;;-3.66;99.59;101849.09;7396802;19;20070;-68
2024/01/20 03:52:00;;;;;;;23.10;13.88;;;;;;;-3.66;99.19;101845.66;7395254;19;20028;-69
2024/01/20 03:54:28;;;;;;;22.88;13.52;;;;;;;-3.65;100.00;101847.41;7394781;19;20027;-68
2024/01/20 03:56:57;;;;;;;27.15;14.82;;;;;;;-3.66;99.37;101851.66;7396610;19;20027;-68
2024/01/20 03:59:25;;;;;;;26.67;14.15;;;;;;;-3.64;98.79;101851.72;7395548;19;20011;-68
2024/01/20 04:01:54;;;;;;;26.48;13.95;;;;;;;-3.63;98.55;101850.94;7396435;19;20027;-68
2024/01/20 04:04:22;;;;;;;27.98;13.95;;;;;;;-3.64;100.00;101841.47;7394901;19;20022;-69
2024/01/20 04:06:53;;;;;;;25.58;14.45;;;;;;;-3.60;99.69;101848.56;7394507;19;20019;-68
2024/01/20 04:09:22;;;;;;;25.45;13.55;;;;;;;-3.57;99.26;101848.72;7396513;19;20074;-68
2024/01/20 04:11:51;;;;;;;23.40;13.63;;;;;;;-3.55;99.04;101851.34;7396313;19;20010;-68
2024/01/20 04:14:19;;;;;;;24.55;13.93;;;;;;;-3.51;99.04;101859.31;7394748;19;20041;-69
2024/01/20 04:16:48;;;;;;;27.30;14.98;;;;;;;-3.49;99.05;101857.72;7396631;19;20023;-69
2024/01/20 04:19:16;;;;;;;22.42;12.93;;;;;;;-3.47;99.07;101868.91;7395311;19;20427;-68
2024/01/20 04:21:45;;;;;;;26.17;14.07;;;;;;;-3.42;100.00;101869.19;7394335;19;20025;-68
2024/01/20 04:24:16;;;;;;;23.50;14.32;;;;;;;-3.42;100.00;101869.19;7394560;19;20014;-69
2024/01/20 04:26:44;;;;;;;25.17;15.82;;;;;;;-3.38;100.00;101873.66;7396296;19;20073;-68
2024/01/20 04:29:13;;;;;;;26.45;15.02;;;;;;;-3.39;100.00;101877.03;7395843;19;20078;-69
2024/01/20 04:31:41;;;;;;;22.23;14.25;;;;;;;-3.37;100.00;101878.00;7393506;19;20027;-68
2024/01/20 04:34:10;;;;;;;27.15;15.23;;;;;;;-3.36;100.00;101874.63;7394312;19;20018;-68
2024/01/20 04:36:38;;;;;;;24.70;16.20;;;;;;;-3.34;100.00;101869.59;7395542;19;20015;-68
2024/01/20 04:39:06;;;;;;;27.10;15.25;;;;;;;-3.33;99.96;101869.66;7395316;19;20018;-68
2024/01/20 04:41:37;;;;;;;30.38;15.18;;;;;;;-3.29;100.00;101873.28;7394985;19;20017;-68
2024/01/20 04:44:07;;;;;;;27.70;15.38;;;;;;;-3.27;100.00;101872.56;7394358;19;20070;-68
2024/01/20 04:46:35;;;;;;;24.20;14.85;;;;;;;-3.23;100.00;101867.59;7393524;19;20014;-68
2024/01/20 04:49:03;;;;;;;23.45;14.82;;;;;;;-3.21;100.00;101879.72;7393133;19;20418;-68
2024/01/20 04:51:32;;;;;;;26.10;14.63;;;;;;;-3.20;99.50;101868.63;7394134;19;20078;-68
2024/01/20 04:54:00;;;;;;;23.25;14.30;;;;;;;-3.16;100.00;101873.13;7393823;19;20014;-69
2024/01/20 04:56:35;;;;;;;25.70;14.23;;;;;;;-3.13;100.00;101870.72;7394566;19;20014;-68
2024/01/20 04:59:06;;;;;;;21.85;14.43;;;;;;;-3.12;100.00;101877.63;7394620;19;20015;-68
2024/01/20 05:01:35;;;;;;;26.05;15.27;;;;;;;-3.07;100.00;101876.97;7395359;19;20023;-68
2024/01/20 05:04:03;;;;;;;33.30;16.63;;;;;;;-3.05;100.00;101880.50;7393323;19;20014;-68
2024/01/20 05:06:32;;;;;;;24.80;14.23;;;;;;;-3.05;99.75;101883.06;7394656;19;20014;-69
2024/01/20 05:09:00;;;;;;;23.63;14.35;;;;;;;-2.99;100.00;101885.97;7394387;19;20070;-68
2024/01/20 05:11:28;;;;;;;28.75;15.88;;;;;;;-2.97;100.00;101886.91;7393901;19;20078;-68
2024/01/20 05:13:57;;;;;;;25.25;13.30;;;;;;;-2.95;99.95;101896.44;7392697;19;20470;-69
2024/01/20 05:16:34;;;;;;;30.58;14.45;;;;;;;-2.90;100.00;101889.00;7394258;19;20070;-68
2024/01/20 05:19:03;;;;;;;22.02;13.95;;;;;;;-2.86;99.87;101896.06;7393949;19;20477;-68
2024/01/20 05:21:32;;;;;;;21.92;14.18;;;;;;;-2.81;100.00;101898.88;7392222;19;20031;-68
2024/01/20 05:24:00;;;;;;;25.52;13.90;;;;;;;-2.79;100.00;101898.13;7392738;19;20090;-68
2024/01/20 05:26:29;;;;;;;22.65;13.27;;;;;;;-2.74;100.00;101902.63;7393528;19;20018;-69
2024/01/20 05:28:57;;;;;;;28.58;14.30;;;;;;;-2.71;100.00;101895.97;7392063;19;20010;-68
2024/01/20 05:31:31;;;;;;;25.52;15.25;;;;;;;-2.69;100.00;101896.94;7393900;19;20031;-68
2024/01/20 05:34:02;;;;;;;22.20;12.23;;;;;;;-2.69;100.00;101891.78;7392583;19;20014;-68
2024/01/20 05:36:30;;;;;;;21.60;13.50;;;;;;;-2.67;98.97;101897.00;7393407;19;20077;-68
2024/01/20 05:38:59;;;;;;;24.00;13.30;;;;;;;-2.65;100.00;101901.41;7393219;19;20506;-68
2024/01/20 05:41:27;;;;;;;24.83;13.40;;;;;;;-2.64;99.38;101897.19;7391461;19;20073;-68
2024/01/20 05:43:56;;;;;;;21.85;13.77;;;;;;;-2.62;100.00;101916.09;7398220;19;20070;-69
2024/01/20 05:46:24;;;;;;;27.48;13.85;;;;;;;-2.60;100.00;101917.06;7397914;19;20498;-68
2024/01/20 05:48:53;;;;;;;21.85;14.52;;;;;;;-2.59;100.00;101923.97;7399492;19;20070;-68
2024/01/20 05:51:30;;;;;;;21.38;14.25;;;;;;;-2.59;100.00;101929.13;7399015;19;20482;-67
2024/01/20 05:54:05;;;;;;;25.70;14.32;;;;;;;-2.61;98.63;101925.56;7399626;19;20508;-66
2024/01/20 05:56:34;;;;;;;27.55;16.00;;;;;;;-2.59;99.36;101935.94;7400173;19;20006;-67
2024/01/20 05:59:02;;;;;;;23.63;13.88;;;;;;;-2.60;99.44;101939.28;7397609;19;20491;-68
2024/01/20 06:01:31;;;;;;;25.95;16.02;;;;;;;-2.64;98.74;101939.16;7397889;19;20070;-67
2024/01/20 06:03:59;;;;;;;25.70;14.57;;;;;;;-2.64;99.17;101930.56;7398334;19;20046;-67
2024/01/20 06:06:30;;;;;;;25.92;15.73;;;;;;;-2.69;97.30;101942.28;7400203;19;20090;-68
2024/01/20 06:08:59;;;;;;;27.55;15.73;;;;;;;-2.70;98.34;101954.25;7399946;19;20017;-68
2024/01/20 06:11:27;;;;;;;27.40;15.30;;;;;;;-2.69;99.62;101952.56;7399566;19;20078;-67
2024/01/20 06:13:56;;;;;;;26.13;15.18;;;;;;;-2.70;100.00;101954.25;7398264;19;20090;-67
2024/01/20 06:16:24;;;;;;;24.48;14.35;;;;;;;-2.69;99.99;101944.84;7399976;19;20022;-68
2024/01/20 06:18:54;;;;;;;24.27;14.13;;;;;;;-2.72;97.76;101944.69;7399857;19;20011;-67
2024/01/20 06:21:23;;;;;;;24.77;14.52;;;;;;;-2.73;99.34;101951.53;7397309;19;20359;-67
2024/01/20 06:23:54;;;;;;;24.85;15.38;;;;;;;-2.76;98.12;101948.78;7397959;19;20015;-67
2024/01/20 06:26:23;;;;;;;24.98;15.23;;;;;;;-2.83;97.10;101939.88;7400036;19;20369;-67
2024/01/20 06:28:52;;;;;;;24.95;15.20;;;;;;;-2.78;98.41;101945.25;7399396;19;20028;-67
2024/01/20 06:31:28;;;;;;;25.42;15.07;;;;;;;-2.79;99.77;101943.50;7399398;19;20017;-67
2024/01/20 06:33:57;;;;;;;27.80;15.50;;;;;;;-2.81;99.29;101958.81;7398249;19;20018;-68
2024/01/20 06:36:26;;;;;;;22.60;13.70;;;;;;;-2.81;99.11;101974.22;7400003;19;20014;-69
2024/01/20 06:38:57;;;;;;;26.15;14.98;;;;;;;-2.83;100.00;101967.25;7396660;19;20010;-68
2024/01/20 06:41:26;;;;;;;23.75;14.23;;;;;;;-2.80;100.00;101978.56;7396893;19;20078;-67
2024/01/20 06:43:54;;;;;;;23.67;14.60;;;;;;;-2.79;100.00;101976.91;7397586;19;20022;-68
2024/01/20 06:46:23;;;;;;;26.13;14.40;;;;;;;-2.78;100.00;101988.91;7398640;19;20423;-68
2024/01/20 06:48:51;;;;;;;26.65;16.23;;;;;;;-2.80;100.00;101977.69;7399083;19;20018;-67
2024/01/20 06:51:22;;;;;;;19.95;13.75;;;;;;;-2.79;99.64;101987.19;7397949;19;20014;-67
2024/01/20 06:53:56;;;;;;;22.52;14.70;;;;;;;-2.79;100.00;101990.63;7395873;19;20079;-68
2024/01/20 06:56:28;;;;;;;25.85;14.20;;;;;;;-2.79;99.63;101990.63;7399147;19;20015;-67
2024/01/20 06:58:57;;;;;;;24.48;14.93;;;;;;;-2.78;100.00;101984.69;7396940;19;20082;-67
2024/01/20 07:01:25;;;;;;;21.92;13.68;;;;;;;-2.76;100.00;101983.88;7396806;19;20015;-67
2024/01/20 07:03:54;;;;;;;20.88;12.52;;;;;;;-2.77;100.00;101988.13;7396656;19;20066;-67
2024/01/20 07:06:24;;;;;;;25.10;14.45;;;;;;;-2.78;100.00;101982.13;7397815;19;20078;-67
2024/01/20 07:08:54;;;;;;;21.40;12.55;;;;;;;-2.76;99.41;101989.91;7398732;19;20011;-68
2024/01/20 07:11:23;;;;;;;21.13;13.18;;;;;;;-2.78;99.27;101979.53;7395808;19;20090;-68
2024/01/20 07:13:54;;;;;;;24.92;12.98;;;;;;;-2.76;99.44;101983.88;7396670;19;20018;-68
2024/01/20 07:16:23;;;;;;;22.10;13.63;;;;;;;-2.75;99.28;101980.53;7397561;19;20498;-68
2024/01/20 07:18:52;;;;;;;22.05;13.98;;;;;;;-2.75;99.81;101989.09;7397309;19;20014;-68
2024/01/20 07:21:20;;;;;;;25.20;14.18;;;;;;;-2.76;98.17;101986.44;7396367;19;20074;-68
2024/01/20 07:23:49;;;;;;;22.23;13.85;;;;;;;-2.78;99.15;101987.25;7396266;19;20018;-68
2024/01/20 07:26:17;;;;;;;25.17;14.40;;;;;;;-2.79;100.00;101984.59;7395771;19;20007;-68
2024/01/20 07:28:45;;;;;;;24.52;14.52;;;;;;;-2.82;98.57;101987.91;7397254;19;20343;-68
2024/01/20 07:31:17;;;;;;;19.10;12.93;;;;;;;-2.84;99.17;101989.50;7397482;19;20070;-69
2024/01/20 07:33:46;;;;;;;29.60;14.65;;;;;;;-2.83;100.00;101993.84;7395984;19;20027;-70
2024/01/20 07:36:15;;;;;;;25.25;14.80;;;;;;;-2.80;100.00;101998.25;7394926;19;20010;-72
2024/01/20 07:38:43;;;;;;;25.90;14.63;;;;;;;-2.78;100.00;101994.97;7398891;19;20018;-71
2024/01/20 07:41:12;;;;;;;26.75;15.27;;;;;;;-2.78;98.83;101994.06;7394998;19;20122;-68
2024/01/20 07:43:40;;;;;;;22.27;13.75;;;;;;;-2.78;98.98;102002.66;7395603;19;20434;-68
2024/01/20 07:46:12;;;;;;;23.25;14.38;;;;;;;-2.79;100.00;102000.88;7397597;19;20030;-68
2024/01/20 07:48:43;;;;;;;23.73;12.77;;;;;;;-2.80;99.51;102001.69;7397179;19;20030;-68
2024/01/20 07:51:11;;;;;;;23.02;13.63;;;;;;;-2.81;98.84;102005.06;7396807;19;20014;-68
2024/01/20 07:53:39;;;;;;;24.92;14.85;;;;;;;-2.82;100.00;102003.31;7394495;19;20095;-68
2024/01/20 07:56:11;;;;;;;25.83;15.07;;;;;;;-2.82;99.78;102000.75;7396499;19;20027;-68
2024/01/20 07:58:39;;;;;;;21.92;13.35;;;;;;;-2.81;99.75;102009.31;7396610;19;20034;-68
2024/01/20 08:01:07;;;;;;;23.17;13.50;;;;;;;-2.80;98.62;102006.81;7394790;19;20023;-68
2024/01/20 08:03:36;;;;;;;21.35;13.60;;;;;;;-2.79;99.28;102007.72;7395141;19;20020;-68
2024/01/20 08:06:07;;;;;;;21.38;13.60;;;;;;;-2.78;99.87;102004.34;7393516;19;20018;-69
2024/01/20 08:08:36;;;;;;;22.13;13.15;;;;;;;-2.75;99.95;102003.63;7395554;19;20074;-69
2024/01/20 08:11:04;;;;;;;24.48;13.63;;;;;;;-2.74;99.81;102005.38;7396091;19;20086;-69
2024/01/20 08:13:33;;;;;;;23.33;13.82;;;;;;;-2.72;98.61;102008.94;7395594;19;20014;-69
2024/01/20 08:16:01;;;;;;;25.95;14.85;;;;;;;-2.71;99.81;102003.84;7397561;19;20074;-68
2024/01/20 08:18:29;;;;;;;22.92;13.95;;;;;;;-2.68;100.00;102013.41;7396502;19;20024;-67
2024/01/20 08:20:58;;;;;;;20.30;13.20;;;;;;;-2.66;100.00;102019.53;7394823;19;20024;-67
2024/01/20 08:23:29;;;;;;;19.65;12.07;;;;;;;-2.64;97.94;102023.06;7395039;19;20082;-67
2024/01/20 08:25:58;;;;;;;19.80;11.63;;;;;;;-2.61;97.43;102028.38;7394141;19;20011;-67
2024/01/20 08:28:26;;;;;;;23.35;11.95;;;;;;;-2.58;97.81;102020.81;7395986;19;20010;-68
2024/01/20 08:30:55;;;;;;;21.63;12.68;;;;;;;-2.53;98.09;102023.63;7396015;19;20082;-67
2024/01/20 08:33:23;;;;;;;21.65;12.95;;;;;;;-2.50;99.07;102034.06;7395101;19;20032;-69
2024/01/20 08:35:52;;;;;;;19.52;12.32;;;;;;;-2.50;97.10;102034.94;7396492;19;20018;-69
2024/01/20 08:38:29;;;;;;;23.92;12.80;;;;;;;-2.46;99.37;102030.84;7395581;19;20022;-68
2024/01/20 08:41:10;;;;;;;22.33;13.10;;;;;;;-2.46;96.96;102043.72;7395079;19;20014;-67
2024/01/20 08:43:39;;;;;;;16.55;11.52;;;;;;;-2.44;96.77;102043.78;7393365;19;20019;-65
2024/01/20 08:46:08;;;;;;;24.02;12.88;;;;;;;-2.42;96.88;102049.91;7394987;19;20018;-65
2024/01/20 08:48:37;;;;;;;23.05;12.60;;;;;;;-2.40;96.95;102046.59;7394913;19;20086;-65
2024/01/20 08:51:06;;;;;;;21.05;11.70;;;;;;;-2.38;97.46;102038.97;7394857;19;20010;-65
2024/01/20 08:53:37;;;;;;;18.90;11.85;;;;;;;-2.35;98.21;102044.25;7392692;19;20502;-68
2024/01/20 08:56:07;;;;;;;21.70;13.65;;;;;;;-2.32;98.88;102045.28;7393461;19;20014;-67
2024/01/20 08:58:35;;;;;;;23.17;13.15;;;;;;;-2.29;98.75;102052.28;7393979;19;20502;-67
2024/01/20 09:01:03;;;;;;;20.52;12.30;;;;;;;-2.27;98.53;102055.84;7393468;19;20074;-66
2024/01/20 09:03:32;;;;;;;24.35;14.27;;;;;;;-2.23;98.12;102050.03;7393075;19;20022;-67
2024/01/20 09:06:00;;;;;;;20.85;12.40;;;;;;;-2.19;97.63;102058.78;7394122;19;20014;-67
2024/01/20 09:08:29;;;;;;;18.85;12.13;;;;;;;-2.15;97.00;102050.44;7392321;19;20031;-66
2024/01/20 09:11:00;;;;;;;22.35;13.40;;;;;;;-2.09;96.68;102042.16;7394012;19;20090;-66
2024/01/20 09:13:28;;;;;;;19.77;13.68;;;;;;;-2.03;97.29;102053.63;7393058;19;20010;-66
2024/01/20 09:15:57;;;;;;;21.05;13.32;;;;;;;-1.97;98.61;102053.06;7393748;19;20519;-67
2024/01/20 09:18:25;;;;;;;21.92;13.13;;;;;;;-1.94;96.41;102055.78;7399149;19;20010;-67
2024/01/20 09:20:54;;;;;;;17.85;12.30;;;;;;;-1.91;95.22;102058.50;7400966;19;20078;-67
2024/01/20 09:23:23;;;;;;;19.08;12.77;;;;;;;-1.86;95.68;102059.66;7399804;19;20031;-67
2024/01/20 09:25:51;;;;;;;20.67;13.38;;;;;;;-1.82;96.45;102066.69;7401418;19;20010;-66
2024/01/20 09:28:22;;;;;;;21.58;13.15;;;;;;;-1.79;96.66;102068.53;7401334;19;20532;-68
2024/01/20 09:30:51;;;;;;;23.23;13.30;;;;;;;-1.74;96.51;102072.22;7401123;19;20151;-66
2024/01/20 09:33:20;;;;;;;22.75;13.00;;;;;;;-1.71;96.53;102059.50;7399194;19;20385;-66
2024/01/20 09:35:48;;;;;;;23.08;13.70;;;;;;;-1.67;97.35;102074.31;7400619;19;20015;-66
2024/01/20 09:38:17;;;;;;;23.13;13.27;;;;;;;-1.63;95.19;102080.50;7401058;19;20015;-66
2024/01/20 09:40:46;;;;;;;22.02;12.35;;;;;;;-1.60;96.81;102080.63;7398002;19;20078;-67
2024/01/20 09:43:15;;;;;;;20.52;13.55;;;;;;;-1.58;94.53;102073.88;7399646;19;20089;-66
2024/01/20 09:45:47;;;;;;;19.77;12.45;;;;;;;-1.56;94.37;102077.41;7400126;19;20082;-66
2024/01/20 09:48:15;;;;;;;23.85;12.07;;;;;;;-1.54;95.09;102078.38;7400253;19;20514;-67
2024/01/20 09:50:44;;;;;;;18.13;11.43;;;;;;;-1.50;94.01;102081.97;7397689;19;20027;-67
2024/01/20 09:53:16;;;;;;;18.63;12.38;;;;;;;-1.49;93.39;102091.47;7397105;19;20035;-66
2024/01/20 09:55:46;;;;;;;19.55;12.15;;;;;;;-1.48;93.66;102086.41;7400395;19;20021;-66
2024/01/20 09:58:15;;;;;;;17.20;11.43;;;;;;;-1.45;93.14;102092.47;7400247;19;20015;-67
2024/01/20 10:00:47;;;;;;;19.42;11.73;;;;;;;-1.45;90.94;102089.91;7397461;19;20018;-67
2024/01/20 10:03:20;;;;;;;19.67;12.77;;;;;;;-1.46;89.57;102091.63;7399174;19;20091;-67
2024/01/20 10:05:51;;;;;;;18.02;11.80;;;;;;;-1.40;90.44;102097.06;7399669;19;20490;-67
2024/01/20 10:08:26;;;;;;;17.67;12.63;;;;;;;-1.34;94.35;102088.75;7399670;19;20498;-67
2024/01/20 10:11:10;;;;;;;21.20;12.52;;;;;;;-1.32;90.50;102082.84;7399712;19;20014;-67
2024/01/20 10:13:39;;;;;;;19.20;12.18;;;;;;;-1.24;96.17;102096.13;7397387;19;20386;-67
2024/01/20 10:16:10;;;;;;;17.90;12.18;;;;;;;-1.21;91.86;102093.69;7396599;19;20486;-66
2024/01/20 10:18:39;;;;;;;21.00;12.23;;;;;;;-1.17;93.75;102094.72;7399498;19;20007;-66
2024/01/20 10:21:09;;;;;;;19.83;12.18;;;;;;;-1.12;91.73;102115.56;7397062;19;20011;-67
2024/01/20 10:23:38;;;;;;;24.17;13.73;;;;;;;-1.08;91.05;102096.88;7397811;19;20015;-68
2024/01/20 10:26:09;;;;;;;21.23;12.65;;;;;;;-1.07;89.81;102089.19;7399562;19;20015;-67
2024/01/20 10:28:38;;;;;;;20.27;12.65;;;;;;;-1.04;91.61;102109.06;7398384;19;20014;-68
2024/01/20 10:31:13;;;;;;;18.52;12.40;;;;;;;-0.99;91.44;102107.59;7396502;19;20007;-67
2024/01/20 10:33:41;;;;;;;20.10;12.98;;;;;;;-0.96;90.09;102110.34;7397768;19;20485;-66
2024/01/20 10:36:13;;;;;;;21.80;13.55;;;;;;;-0.92;90.26;102106.19;7397174;19;20070;-68
2024/01/20 10:38:43;;;;;;;20.65;12.35;;;;;;;-0.87;92.76;102102.16;7399558;19;20026;-66
2024/01/20 10:41:15;;;;;;;21.15;12.88;;;;;;;-0.82;89.63;102104.13;7396639;19;20014;-63
2024/01/20 10:43:53;;;;;;;18.95;12.38;;;;;;;-0.74;92.14;102108.75;7397785;19;20033;-65
2024/01/20 10:46:30;;;;;;;39.97;19.15;;;;;;;-0.65;91.25;102101.44;7399294;19;20029;-65
2024/01/20 10:49:02;;;;;;;32.97;16.60;;;;;;;-0.57;92.17;102100.13;7399003;19;20103;-65
2024/01/20 10:51:31;;;;;;;21.80;12.85;;;;;;;-0.51;90.05;102095.22;7399059;19;20022;-65
2024/01/20 10:54:00;;;;;;;21.65;12.65;;;;;;;-0.45;92.04;102104.94;7395828;19;20010;-65
2024/01/20 10:56:30;;;;;;;25.23;14.63;;;;;;;-0.39;92.58;102104.31;7396208;19;20034;-66
2024/01/20 10:59:08;;;;;;;20.30;12.02;;;;;;;-0.36;87.88;102113.06;7397585;19;20359;-65
2024/01/20 11:01:40;;;;;;;20.25;12.65;;;;;;;-0.34;90.43;102108.88;7397835;19;20347;-66
2024/01/20 11:04:09;;;;;;;23.23;14.48;;;;;;;-0.31;94.30;102096.94;7395854;19;20026;-65
2024/01/20 11:06:38;;;;;;;21.83;14.57;;;;;;;-0.28;90.51;102094.50;7395508;19;20015;-66
2024/01/20 11:09:07;;;;;;;21.70;12.50;;;;;;;-0.27;87.85;102107.44;7395849;19;20070;-65
2024/01/20 11:11:36;;;;;;;17.83;13.10;;;;;;;-0.28;88.00;102095.38;7397827;19;20034;-66
2024/01/20 11:14:05;;;;;;;24.20;12.65;;;;;;;-0.24;90.63;102109.28;7395687;19;20007;-65
2024/01/20 11:16:37;;;;;;;22.50;12.40;;;;;;;-0.25;88.36;102099.78;7395447;19;20024;-65